createdAt,value
2022-08-12T00:00:45.975Z,16.90
2022-08-12T00:02:02.828Z,16.91
2022-08-12T00:02:37.092Z,16.91
2022-08-12T00:03:37.163Z,16.81
2022-08-12T00:04:37.079Z,16.79
2022-08-12T00:05:36.996Z,16.78
2022-08-12T00:06:37.027Z,16.81
2022-08-12T00:07:36.940Z,16.75
2022-08-12T00:08:37.228Z,16.86
2022-08-12T00:09:36.957Z,16.83
2022-08-12T00:10:36.904Z,16.68
2022-08-12T00:11:36.823Z,16.78
2022-08-12T00:12:36.789Z,16.72
2022-08-12T00:13:36.761Z,16.86
2022-08-12T00:14:36.731Z,16.71
2022-08-12T00:15:36.755Z,16.75
2022-08-12T00:16:37.363Z,16.76
2022-08-12T00:17:36.641Z,16.71
2022-08-12T00:18:36.668Z,16.78
2022-08-12T00:19:36.584Z,16.69
2022-08-12T00:20:36.604Z,16.72
2022-08-12T00:21:36.532Z,16.76
2022-08-12T00:22:36.499Z,16.71
2022-08-12T00:23:36.477Z,16.76
2022-08-12T00:24:36.436Z,16.71
2022-08-12T00:26:02.801Z,16.68
2022-08-12T00:26:36.382Z,16.72
2022-08-12T00:27:43.997Z,16.68
2022-08-12T00:28:36.321Z,16.83
2022-08-12T00:29:36.536Z,16.75
2022-08-12T00:30:36.317Z,16.78
2022-08-12T00:31:36.285Z,16.72
2022-08-12T00:32:36.826Z,16.69
2022-08-12T00:33:38.736Z,16.75
2022-08-12T00:34:36.142Z,16.72
2022-08-12T00:35:36.867Z,16.71
2022-08-12T00:36:36.503Z,16.69
2022-08-12T00:37:36.049Z,16.68
2022-08-12T00:38:36.055Z,16.68
2022-08-12T00:39:36.162Z,16.69
2022-08-12T00:40:35.963Z,16.68
2022-08-12T00:41:35.989Z,16.68
2022-08-12T00:42:35.905Z,16.66
2022-08-12T00:43:35.878Z,16.66
2022-08-12T00:44:35.840Z,16.64
2022-08-12T00:45:35.817Z,16.71
2022-08-12T00:46:35.952Z,16.72
2022-08-12T00:47:35.757Z,16.74
2022-08-12T00:48:35.734Z,16.79
2022-08-12T00:49:35.694Z,16.86
2022-08-12T00:50:35.665Z,16.78
2022-08-12T00:51:35.725Z,16.76
2022-08-12T00:52:35.808Z,16.72
2022-08-12T00:53:35.576Z,16.79
2022-08-12T00:54:35.546Z,16.79
2022-08-12T00:55:35.518Z,16.68
2022-08-12T00:56:35.490Z,16.75
2022-08-12T00:57:35.506Z,16.75
2022-08-12T00:58:35.421Z,16.71
2022-08-12T00:59:35.403Z,16.72
2022-08-12T01:00:35.369Z,16.66
2022-08-12T01:02:11.263Z,16.65
2022-08-12T01:02:35.449Z,16.61
2022-08-12T01:03:35.285Z,16.51
2022-08-12T01:04:35.288Z,16.57
2022-08-12T01:05:35.222Z,16.57
2022-08-12T01:06:35.219Z,16.56
2022-08-12T01:07:35.250Z,16.47
2022-08-12T01:08:35.131Z,16.53
2022-08-12T01:09:35.104Z,16.56
2022-08-12T01:10:35.073Z,16.56
2022-08-12T01:11:35.989Z,16.56
2022-08-12T01:12:35.050Z,16.56
2022-08-12T01:13:35.040Z,16.56
2022-08-12T01:14:34.957Z,16.43
2022-08-12T01:15:34.921Z,16.49
2022-08-12T01:16:34.894Z,16.53
2022-08-12T01:17:34.870Z,16.46
2022-08-12T01:18:34.892Z,16.50
2022-08-12T01:19:34.855Z,16.46
2022-08-12T01:20:34.785Z,16.51
2022-08-12T01:21:34.747Z,16.39
2022-08-12T01:22:34.763Z,16.43
2022-08-12T01:23:34.685Z,16.42
2022-08-12T01:24:34.722Z,16.41
2022-08-12T01:25:37.386Z,16.36
2022-08-12T01:26:34.597Z,16.29
2022-08-12T01:27:34.575Z,16.29
2022-08-12T01:28:34.536Z,16.24
2022-08-12T01:29:34.584Z,16.16
2022-08-12T01:30:34.479Z,16.15
2022-08-12T01:31:34.442Z,16.15
2022-08-12T01:32:34.492Z,16.17
2022-08-12T01:33:34.397Z,16.17
2022-08-12T01:34:36.936Z,16.13
2022-08-12T01:35:34.351Z,16.12
2022-08-12T01:36:34.299Z,16.13
2022-08-12T01:37:34.273Z,16.02
2022-08-12T01:38:34.238Z,16.00
2022-08-12T01:39:34.270Z,16.01
2022-08-12T01:40:38.163Z,16.04
2022-08-12T01:41:36.888Z,15.97
2022-08-12T01:42:34.146Z,15.98
2022-08-12T01:43:34.093Z,15.94
2022-08-12T01:44:34.060Z,16.00
2022-08-12T01:45:43.273Z,15.94
2022-08-12T01:46:34.000Z,15.95
2022-08-12T01:47:33.967Z,15.92
2022-08-12T01:48:33.971Z,15.92
2022-08-12T01:49:33.965Z,15.97
2022-08-12T01:50:33.890Z,16.05
2022-08-12T01:52:15.373Z,16.04
2022-08-12T01:52:33.820Z,16.00
2022-08-12T01:53:50.452Z,16.02
2022-08-12T01:54:33.758Z,15.95
2022-08-12T01:55:33.732Z,15.94
2022-08-12T01:56:33.776Z,15.92
2022-08-12T01:57:58.329Z,15.97
2022-08-12T01:58:33.641Z,15.95
2022-08-12T01:59:33.607Z,15.97
2022-08-12T02:00:35.753Z,15.90
2022-08-12T02:01:33.613Z,15.92
2022-08-12T02:02:33.575Z,15.97
2022-08-12T02:03:33.534Z,15.84
2022-08-12T02:04:33.461Z,15.84
2022-08-12T02:05:33.435Z,16.02
2022-08-12T02:06:33.402Z,15.97
2022-08-12T02:07:33.471Z,15.94
2022-08-12T02:08:33.337Z,15.98
2022-08-12T02:09:33.311Z,16.01
2022-08-12T02:10:50.591Z,15.92
2022-08-12T02:11:33.253Z,15.94
2022-08-12T02:12:33.233Z,15.94
2022-08-12T02:13:48.418Z,15.94
2022-08-12T02:14:33.160Z,15.84
2022-08-12T02:15:33.135Z,15.86
2022-08-12T02:16:33.100Z,15.80
2022-08-12T02:17:55.298Z,15.84
2022-08-12T02:18:33.043Z,15.80
2022-08-12T02:19:33.075Z,15.83
2022-08-12T02:20:43.883Z,15.90
2022-08-12T02:21:32.959Z,15.83
2022-08-12T02:22:32.919Z,15.83
2022-08-12T02:23:32.895Z,15.80
2022-08-12T02:24:32.916Z,15.82
2022-08-12T02:25:32.862Z,15.80
2022-08-12T02:26:32.799Z,15.82
2022-08-12T02:27:32.772Z,15.83
2022-08-12T02:28:33.406Z,15.80
2022-08-12T02:29:32.761Z,15.80
2022-08-12T02:30:33.282Z,15.75
2022-08-12T02:31:32.651Z,15.73
2022-08-12T02:32:32.621Z,15.73
2022-08-12T02:33:32.591Z,15.75
2022-08-12T02:34:32.561Z,15.73
2022-08-12T02:35:32.585Z,15.70
2022-08-12T02:36:33.107Z,15.72
2022-08-12T02:37:32.469Z,15.70
2022-08-12T02:38:32.443Z,15.77
2022-08-12T02:39:32.442Z,15.75
2022-08-12T02:40:32.441Z,15.77
2022-08-12T02:41:32.369Z,15.67
2022-08-12T02:42:32.315Z,15.70
2022-08-12T02:43:32.290Z,15.79
2022-08-12T02:44:32.260Z,15.72
2022-08-12T02:45:32.341Z,15.73
2022-08-12T02:46:32.202Z,15.68
2022-08-12T02:47:59.057Z,15.65
2022-08-12T02:48:32.135Z,15.65
2022-08-12T02:49:32.104Z,15.70
2022-08-12T02:50:32.078Z,15.61
2022-08-12T02:51:32.101Z,15.59
2022-08-12T02:52:32.013Z,15.54
2022-08-12T02:53:31.984Z,15.54
2022-08-12T02:54:31.956Z,15.47
2022-08-12T02:55:34.901Z,15.46
2022-08-12T02:56:32.080Z,15.49
2022-08-12T02:57:31.868Z,15.47
2022-08-12T02:58:32.900Z,15.49
2022-08-12T02:59:31.802Z,15.43
2022-08-12T03:00:31.775Z,15.51
2022-08-12T03:01:31.813Z,15.55
2022-08-12T03:02:31.791Z,15.61
2022-08-12T03:03:31.688Z,15.59
2022-08-12T03:04:31.656Z,15.64
2022-08-12T03:05:31.623Z,15.65
2022-08-12T03:06:31.597Z,15.67
2022-08-12T03:07:38.095Z,15.62
2022-08-12T03:08:32.990Z,15.62
2022-08-12T03:09:35.865Z,15.68
2022-08-12T03:10:37.124Z,15.62
2022-08-12T03:11:31.450Z,15.72
2022-08-12T03:12:34.183Z,15.61
2022-08-12T03:13:31.385Z,15.57
2022-08-12T03:14:31.407Z,15.72
2022-08-12T03:15:31.330Z,15.67
2022-08-12T03:16:33.243Z,15.67
2022-08-12T03:17:31.263Z,15.65
2022-08-12T03:18:31.288Z,15.70
2022-08-12T03:19:31.200Z,15.59
2022-08-12T03:20:31.229Z,15.59
2022-08-12T03:21:53.103Z,15.65
2022-08-12T03:22:31.149Z,15.73
2022-08-12T03:23:31.533Z,15.59
2022-08-12T03:24:31.052Z,15.72
2022-08-12T03:25:31.020Z,15.72
2022-08-12T03:26:30.986Z,15.72
2022-08-12T03:27:30.957Z,15.72
2022-08-12T03:28:30.984Z,15.67
2022-08-12T03:29:30.923Z,15.72
2022-08-12T03:30:30.869Z,15.68
2022-08-12T03:31:30.843Z,15.65
2022-08-12T03:32:36.243Z,15.62
2022-08-12T03:33:30.839Z,15.67
2022-08-12T03:34:30.751Z,15.67
2022-08-12T03:35:41.213Z,15.64
2022-08-12T03:36:30.688Z,15.68
2022-08-12T03:37:30.660Z,15.61
2022-08-12T03:38:30.623Z,15.65
2022-08-12T03:39:36.582Z,15.61
2022-08-12T03:40:31.419Z,15.62
2022-08-12T03:41:30.549Z,15.58
2022-08-12T03:42:30.579Z,15.51
2022-08-12T03:43:30.471Z,15.49
2022-08-12T03:44:30.443Z,15.49
2022-08-12T03:45:30.463Z,15.57
2022-08-12T03:46:30.382Z,15.54
2022-08-12T03:47:31.030Z,15.47
2022-08-12T03:48:30.323Z,15.51
2022-08-12T03:49:30.293Z,15.42
2022-08-12T03:50:30.312Z,15.40
2022-08-12T03:51:30.231Z,15.44
2022-08-12T03:52:30.203Z,15.44
2022-08-12T03:53:30.204Z,15.54
2022-08-12T03:54:30.141Z,15.55
2022-08-12T03:55:30.193Z,15.55
2022-08-12T03:56:30.082Z,15.62
2022-08-12T03:57:30.051Z,15.70
2022-08-12T03:58:30.020Z,15.58
2022-08-12T03:59:29.991Z,15.55
2022-08-12T04:00:29.958Z,15.59
2022-08-12T04:01:30.049Z,15.54
2022-08-12T04:02:29.900Z,15.61
2022-08-12T04:03:29.877Z,15.54
2022-08-12T04:04:29.838Z,15.59
2022-08-12T04:05:54.305Z,15.57
2022-08-12T04:06:34.246Z,15.61
2022-08-12T04:07:29.752Z,15.65
2022-08-12T04:08:29.734Z,15.51
2022-08-12T04:09:29.690Z,15.55
2022-08-12T04:10:29.658Z,15.67
2022-08-12T04:11:32.202Z,15.65
2022-08-12T04:12:32.707Z,15.61
2022-08-12T04:13:29.565Z,15.70
2022-08-12T04:14:29.568Z,15.70
2022-08-12T04:15:29.519Z,15.79
2022-08-12T04:16:30.431Z,15.80
2022-08-12T04:17:29.504Z,15.83
2022-08-12T04:18:29.477Z,15.90
2022-08-12T04:19:29.416Z,15.97
2022-08-12T04:20:29.356Z,16.02
2022-08-12T04:21:29.328Z,16.05
2022-08-12T04:22:29.388Z,16.05
2022-08-12T04:23:29.269Z,16.00
2022-08-12T04:24:29.241Z,16.10
2022-08-12T04:25:29.206Z,16.31
2022-08-12T04:26:29.171Z,16.49
2022-08-12T04:27:29.201Z,16.53
2022-08-12T04:28:29.177Z,16.51
2022-08-12T04:30:21.139Z,16.50
2022-08-12T04:30:32.157Z,16.49
2022-08-12T04:31:29.032Z,16.51
2022-08-12T04:32:28.994Z,16.43
2022-08-12T04:33:29.016Z,16.46
2022-08-12T04:34:28.945Z,16.38
2022-08-12T04:35:28.910Z,16.32
2022-08-12T04:36:28.881Z,16.28
2022-08-12T04:37:28.848Z,16.29
2022-08-12T04:38:28.872Z,16.28
2022-08-12T04:39:28.808Z,16.29
2022-08-12T04:40:28.999Z,16.32
2022-08-12T04:41:28.725Z,16.28
2022-08-12T04:42:28.700Z,16.39
2022-08-12T04:43:53.694Z,16.36
2022-08-12T04:44:28.639Z,16.47
2022-08-12T04:45:28.614Z,16.56
2022-08-12T04:46:30.814Z,16.54
2022-08-12T04:47:28.560Z,16.56
2022-08-12T04:48:28.573Z,16.61
2022-08-12T04:49:28.572Z,16.72
2022-08-12T04:50:35.897Z,16.71
2022-08-12T04:51:28.430Z,16.75
2022-08-12T04:52:31.879Z,16.81
2022-08-12T04:53:28.424Z,16.75
2022-08-12T04:54:28.534Z,16.78
2022-08-12T04:55:28.317Z,16.83
2022-08-12T04:56:28.291Z,16.86
2022-08-12T04:57:28.290Z,16.89
2022-08-12T04:58:29.787Z,16.96
2022-08-12T04:59:28.249Z,16.89
2022-08-12T05:00:28.161Z,16.99
2022-08-12T05:01:28.130Z,17.05
2022-08-12T05:02:28.165Z,17.11
2022-08-12T05:03:28.164Z,17.15
2022-08-12T05:04:28.087Z,17.22
2022-08-12T05:05:32.560Z,17.19
2022-08-12T05:06:27.980Z,17.23
2022-08-12T05:07:28.948Z,17.26
2022-08-12T05:08:28.027Z,17.29
2022-08-12T05:09:58.729Z,17.39
2022-08-12T05:10:33.418Z,17.36
2022-08-12T05:11:27.840Z,17.41
2022-08-12T05:12:27.807Z,17.44
2022-08-12T05:13:27.783Z,17.56
2022-08-12T05:14:28.165Z,17.46
2022-08-12T05:15:29.681Z,17.54
2022-08-12T05:16:32.698Z,17.63
2022-08-12T05:17:28.275Z,17.70
2022-08-12T05:18:29.211Z,17.65
2022-08-12T05:19:27.609Z,17.65
2022-08-12T05:20:27.624Z,17.72
2022-08-12T05:21:27.556Z,17.80
2022-08-12T05:22:27.517Z,17.82
2022-08-12T05:23:27.488Z,17.89
2022-08-12T05:24:27.482Z,17.86
2022-08-12T05:25:27.524Z,17.94
2022-08-12T05:26:27.409Z,17.97
2022-08-12T05:27:27.373Z,18.03
2022-08-12T05:28:27.572Z,18.11
2022-08-12T05:30:06.789Z,18.08
2022-08-12T05:30:27.292Z,18.13
2022-08-12T05:31:42.438Z,18.19
2022-08-12T05:32:27.228Z,18.16
2022-08-12T05:33:27.201Z,18.26
2022-08-12T05:34:27.170Z,18.34
2022-08-12T05:35:27.147Z,18.28
2022-08-12T05:36:27.172Z,18.37
2022-08-12T05:37:27.094Z,18.38
2022-08-12T05:38:27.059Z,18.44
2022-08-12T05:39:27.086Z,18.50
2022-08-12T05:40:26.998Z,18.50
2022-08-12T05:41:27.022Z,18.58
2022-08-12T05:42:34.589Z,18.58
2022-08-12T05:43:26.914Z,18.71
2022-08-12T05:44:26.878Z,18.74
2022-08-12T05:45:26.851Z,18.78
2022-08-12T05:46:26.905Z,18.86
2022-08-12T05:47:36.663Z,18.92
2022-08-12T05:48:26.772Z,18.84
2022-08-12T05:49:26.748Z,18.84
2022-08-12T05:50:26.708Z,18.95
2022-08-12T05:51:38.615Z,18.89
2022-08-12T05:52:26.707Z,18.99
2022-08-12T05:53:26.622Z,18.92
2022-08-12T05:54:47.334Z,19.02
2022-08-12T05:55:31.114Z,18.95
2022-08-12T05:56:26.540Z,19.11
2022-08-12T05:57:26.594Z,19.14
2022-08-12T05:58:26.486Z,19.16
2022-08-12T05:59:26.464Z,19.21
2022-08-12T06:00:26.432Z,19.39
2022-08-12T06:02:11.904Z,19.34
2022-08-12T06:02:26.368Z,19.34
2022-08-12T06:03:26.431Z,19.37
2022-08-12T06:04:26.325Z,19.51
2022-08-12T06:05:26.285Z,19.55
2022-08-12T06:06:27.767Z,19.54
2022-08-12T06:07:40.740Z,19.64
2022-08-12T06:08:26.263Z,19.66
2022-08-12T06:09:26.177Z,19.74
2022-08-12T06:10:31.702Z,19.77
2022-08-12T06:11:26.118Z,19.79
2022-08-12T06:12:26.090Z,19.85
2022-08-12T06:13:52.791Z,19.91
2022-08-12T06:14:26.031Z,19.89
2022-08-12T06:15:26.006Z,19.91
2022-08-12T06:16:25.976Z,19.95
2022-08-12T06:17:25.947Z,20.04
2022-08-12T06:18:29.734Z,20.04
2022-08-12T06:19:25.893Z,20.02
2022-08-12T06:20:29.246Z,20.00
2022-08-12T06:21:25.834Z,20.09
2022-08-12T06:22:25.820Z,20.13
2022-08-12T06:23:25.865Z,20.26
2022-08-12T06:24:25.774Z,20.29
2022-08-12T06:25:25.729Z,20.31
2022-08-12T06:26:25.703Z,20.41
2022-08-12T06:27:25.682Z,20.36
2022-08-12T06:28:25.665Z,20.40
2022-08-12T06:30:08.820Z,20.40
2022-08-12T06:30:36.820Z,20.55
2022-08-12T06:31:26.832Z,20.55
2022-08-12T06:32:27.337Z,20.65
2022-08-12T06:34:00.383Z,20.67
2022-08-12T06:35:26.330Z,20.67
2022-08-12T06:35:48.375Z,20.72
2022-08-12T06:36:29.947Z,20.67
2022-08-12T06:37:25.686Z,20.70
2022-08-12T06:38:25.419Z,20.78
2022-08-12T06:39:25.532Z,20.80
2022-08-12T06:40:26.001Z,20.75
2022-08-12T06:41:25.293Z,20.84
2022-08-12T06:42:32.484Z,20.81
2022-08-12T06:43:25.236Z,20.99
2022-08-12T06:44:25.205Z,21.09
2022-08-12T06:45:25.231Z,21.12
2022-08-12T06:46:25.154Z,21.07
2022-08-12T06:47:25.124Z,21.11
2022-08-12T06:48:25.093Z,21.17
2022-08-12T06:49:25.073Z,21.21
2022-08-12T06:50:25.094Z,21.22
2022-08-12T06:51:25.018Z,21.36
2022-08-12T06:52:25.487Z,21.48
2022-08-12T06:53:24.971Z,21.54
2022-08-12T06:54:27.069Z,21.54
2022-08-12T06:55:25.114Z,21.57
2022-08-12T06:56:39.935Z,21.61
2022-08-12T06:58:05.155Z,21.72
2022-08-12T06:58:24.836Z,21.79
2022-08-12T06:59:24.805Z,21.88
2022-08-12T07:00:27.984Z,21.96
2022-08-12T07:01:24.875Z,21.95
2022-08-12T07:02:24.724Z,21.95
2022-08-12T07:03:24.695Z,22.10
2022-08-12T07:04:40.111Z,22.17
2022-08-12T07:05:24.642Z,22.17
2022-08-12T07:06:24.683Z,22.18
2022-08-12T07:07:24.590Z,22.25
2022-08-12T07:08:24.561Z,22.20
2022-08-12T07:10:05.372Z,22.22
2022-08-12T07:10:24.551Z,22.28
2022-08-12T07:11:24.487Z,22.26
2022-08-12T07:12:24.604Z,22.44
2022-08-12T07:13:24.437Z,22.36
2022-08-12T07:14:24.407Z,22.43
2022-08-12T07:15:24.386Z,22.53
2022-08-12T07:16:24.459Z,22.50
2022-08-12T07:17:24.328Z,22.63
2022-08-12T07:18:24.311Z,22.70
2022-08-12T07:19:24.280Z,22.69
2022-08-12T07:20:50.200Z,22.73
2022-08-12T07:21:24.215Z,22.83
2022-08-12T07:22:24.262Z,22.81
2022-08-12T07:23:24.166Z,22.88
2022-08-12T07:24:24.144Z,22.91
2022-08-12T07:25:24.122Z,22.96
2022-08-12T07:26:24.085Z,23.00
2022-08-12T07:27:24.220Z,23.08
2022-08-12T07:28:24.040Z,23.20
2022-08-12T07:29:24.029Z,23.23
2022-08-12T07:30:24.154Z,23.27
2022-08-12T07:31:23.963Z,23.27
2022-08-12T07:32:23.941Z,23.39
2022-08-12T07:33:24.154Z,23.28
2022-08-12T07:34:23.884Z,23.40
2022-08-12T07:35:23.882Z,23.44
2022-08-12T07:36:23.832Z,23.48
2022-08-12T07:37:23.808Z,23.51
2022-08-12T07:38:29.250Z,23.55
2022-08-12T07:39:23.792Z,23.54
2022-08-12T07:40:23.738Z,23.51
2022-08-12T07:41:23.777Z,23.63
2022-08-12T07:42:23.684Z,23.66
2022-08-12T07:43:23.699Z,23.62
2022-08-12T07:44:23.628Z,23.63
2022-08-12T07:45:23.720Z,23.76
2022-08-12T07:46:23.578Z,23.86
2022-08-12T07:47:23.624Z,23.98
2022-08-12T07:48:23.581Z,23.98
2022-08-12T07:49:24.102Z,24.01
2022-08-12T07:50:24.014Z,24.06
2022-08-12T07:51:25.295Z,24.18
2022-08-12T07:52:23.425Z,24.24
2022-08-12T07:53:23.410Z,24.38
2022-08-12T07:54:23.371Z,24.35
2022-08-12T07:55:23.351Z,24.39
2022-08-12T07:56:24.103Z,24.48
2022-08-12T07:57:23.359Z,24.50
2022-08-12T07:58:23.375Z,24.51
2022-08-12T07:59:23.249Z,24.53
2022-08-12T08:00:23.250Z,24.58
2022-08-12T08:01:23.254Z,24.60
2022-08-12T08:02:26.546Z,24.55
2022-08-12T08:03:23.150Z,24.60
2022-08-12T08:04:23.185Z,24.70
2022-08-12T08:05:23.100Z,24.80
2022-08-12T08:06:23.078Z,24.80
2022-08-12T08:07:23.052Z,24.80
2022-08-12T08:08:23.021Z,24.88
2022-08-12T08:09:23.051Z,24.93
2022-08-12T08:10:22.975Z,25.03
2022-08-12T08:11:23.009Z,25.01
2022-08-12T08:12:22.925Z,25.06
2022-08-12T08:13:22.901Z,25.04
2022-08-12T08:14:23.205Z,25.13
2022-08-12T08:15:38.509Z,25.14
2022-08-12T08:16:22.831Z,25.16
2022-08-12T08:17:22.807Z,25.18
2022-08-12T08:18:26.393Z,25.21
2022-08-12T08:19:22.851Z,25.23
2022-08-12T08:20:22.728Z,25.31
2022-08-12T08:21:23.511Z,25.33
2022-08-12T08:22:25.041Z,25.23
2022-08-12T08:23:29.455Z,25.29
2022-08-12T08:24:22.695Z,25.33
2022-08-12T08:25:36.544Z,25.50
2022-08-12T08:26:22.591Z,25.44
2022-08-12T08:27:23.509Z,25.44
2022-08-12T08:28:22.532Z,25.44
2022-08-12T08:29:22.539Z,25.55
2022-08-12T08:30:22.549Z,25.59
2022-08-12T08:31:22.489Z,25.55
2022-08-12T08:32:22.445Z,25.66
2022-08-12T08:33:23.436Z,25.69
2022-08-12T08:34:33.781Z,25.70
2022-08-12T08:35:22.472Z,25.70
2022-08-12T08:36:23.591Z,25.81
2022-08-12T08:37:22.324Z,25.87
2022-08-12T08:38:30.076Z,25.90
2022-08-12T08:39:22.319Z,25.96
2022-08-12T08:40:22.250Z,25.90
2022-08-12T08:42:14.033Z,25.90
2022-08-12T08:42:22.205Z,25.93
2022-08-12T08:43:22.187Z,25.93
2022-08-12T08:44:22.153Z,26.02
2022-08-12T08:45:22.199Z,26.02
2022-08-12T08:46:22.192Z,25.99
2022-08-12T08:47:22.088Z,26.00
2022-08-12T08:48:22.050Z,26.03
2022-08-12T08:49:22.027Z,26.02
2022-08-12T08:50:22.003Z,26.13
2022-08-12T08:51:21.980Z,26.22
2022-08-12T08:52:39.289Z,26.09
2022-08-12T08:53:21.937Z,26.03
2022-08-12T08:54:21.902Z,26.15
2022-08-12T08:55:29.995Z,26.05
2022-08-12T08:56:21.865Z,26.09
2022-08-12T08:57:21.892Z,26.00
2022-08-12T08:58:21.812Z,26.15
2022-08-12T08:59:21.784Z,26.15
2022-08-12T09:00:21.772Z,26.18
2022-08-12T09:01:21.814Z,26.10
2022-08-12T09:02:21.838Z,26.26
2022-08-12T09:05:13.954Z,26.23
2022-08-12T09:05:24.882Z,26.29
2022-08-12T09:06:37.177Z,26.33
2022-08-12T09:08:23.127Z,26.33
2022-08-12T09:09:21.573Z,26.40
2022-08-12T09:10:54.275Z,26.44
2022-08-12T09:12:06.594Z,26.48
2022-08-12T09:12:27.483Z,26.48
2022-08-12T09:13:23.642Z,26.52
2022-08-12T09:14:29.396Z,26.60
2022-08-12T09:15:21.407Z,26.70
2022-08-12T09:16:21.392Z,26.68
2022-08-12T09:17:21.748Z,26.75
2022-08-12T09:18:26.674Z,26.66
2022-08-12T09:19:27.348Z,26.60
2022-08-12T09:20:21.298Z,26.73
2022-08-12T09:21:21.264Z,26.81
2022-08-12T09:22:21.252Z,26.81
2022-08-12T09:23:59.488Z,26.93
2022-08-12T09:24:21.195Z,26.92
2022-08-12T09:25:25.563Z,26.90
2022-08-12T09:26:21.167Z,26.90
2022-08-12T09:27:24.484Z,26.96
2022-08-12T09:28:21.480Z,26.90
2022-08-12T09:30:10.221Z,27.02
2022-08-12T09:30:42.008Z,27.02
2022-08-12T09:32:07.246Z,27.03
2022-08-12T09:32:56.443Z,27.02
2022-08-12T09:34:26.088Z,26.99
2022-08-12T09:34:27.909Z,26.99
2022-08-12T09:35:22.365Z,27.00
2022-08-12T09:36:31.345Z,26.95
2022-08-12T09:37:22.200Z,26.89
2022-08-12T09:38:28.339Z,26.97
2022-08-12T09:40:04.341Z,27.00
2022-08-12T09:41:01.590Z,27.02
2022-08-12T09:42:34.137Z,26.93
2022-08-12T09:42:40.495Z,26.99
2022-08-12T09:43:21.051Z,27.00
2022-08-12T09:44:38.002Z,26.96
2022-08-12T09:45:23.937Z,27.02
2022-08-12T09:46:25.585Z,27.02
2022-08-12T09:47:20.664Z,26.99
2022-08-12T09:48:21.955Z,27.07
2022-08-12T09:49:23.953Z,27.02
2022-08-12T09:50:20.916Z,26.96
2022-08-12T09:51:22.520Z,27.05
2022-08-12T09:52:20.592Z,27.10
2022-08-12T09:53:29.389Z,27.11
2022-08-12T09:54:34.137Z,27.20
2022-08-12T09:56:06.675Z,27.25
2022-08-12T09:56:56.854Z,27.27
2022-08-12T09:58:46.070Z,27.35
2022-08-12T09:58:56.911Z,27.32
2022-08-12T10:00:17.381Z,27.32
2022-08-12T10:00:29.262Z,27.27
2022-08-12T10:01:23.218Z,27.33
2022-08-12T10:02:44.566Z,27.30
2022-08-12T10:03:32.297Z,27.30
2022-08-12T10:04:20.702Z,27.35
2022-08-12T10:05:20.573Z,27.27
2022-08-12T10:06:31.608Z,27.21
2022-08-12T10:07:24.838Z,27.27
2022-08-12T10:08:20.175Z,27.21
2022-08-12T10:09:20.247Z,27.29
2022-08-12T10:10:22.406Z,27.30
2022-08-12T10:11:20.809Z,27.35
2022-08-12T10:12:31.335Z,27.36
2022-08-12T10:13:36.509Z,27.33
2022-08-12T10:14:20.037Z,27.49
2022-08-12T10:16:02.430Z,27.42
2022-08-12T10:16:22.509Z,27.48
2022-08-12T10:17:19.976Z,27.45
2022-08-12T10:18:19.946Z,27.51
2022-08-12T10:19:19.931Z,27.36
2022-08-12T10:20:19.900Z,27.47
2022-08-12T10:21:19.966Z,27.48
2022-08-12T10:22:40.360Z,27.49
2022-08-12T10:23:19.835Z,27.70
2022-08-12T10:24:20.261Z,27.75
2022-08-12T10:25:19.811Z,27.71
2022-08-12T10:26:37.378Z,27.78
2022-08-12T10:27:19.839Z,27.83
2022-08-12T10:28:25.221Z,27.89
2022-08-12T10:30:01.328Z,27.90
2022-08-12T10:30:42.093Z,27.92
2022-08-12T10:31:19.649Z,27.87
2022-08-12T10:32:43.697Z,27.90
2022-08-12T10:33:31.129Z,27.87
2022-08-12T10:34:25.921Z,27.77
2022-08-12T10:35:19.561Z,27.77
2022-08-12T10:36:19.538Z,27.80
2022-08-12T10:38:05.072Z,27.87
2022-08-12T10:38:33.854Z,27.93
2022-08-12T10:40:01.707Z,28.05
2022-08-12T10:40:22.016Z,28.08
2022-08-12T10:41:21.094Z,28.14
2022-08-12T10:42:28.997Z,28.11
2022-08-12T10:43:19.377Z,28.12
2022-08-12T10:44:19.354Z,28.04
2022-08-12T10:45:19.431Z,28.02
2022-08-12T10:46:19.304Z,28.00
2022-08-12T10:47:26.642Z,27.87
2022-08-12T10:48:27.179Z,27.87
2022-08-12T10:50:02.381Z,27.93
2022-08-12T10:50:28.390Z,27.95
2022-08-12T10:52:04.028Z,28.00
2022-08-12T10:52:34.059Z,28.07
2022-08-12T10:53:19.880Z,28.10
2022-08-12T10:54:19.129Z,28.15
2022-08-12T10:55:19.107Z,28.26
2022-08-12T10:56:19.077Z,28.29
2022-08-12T10:58:13.471Z,28.38
2022-08-12T10:58:30.804Z,28.47
2022-08-12T10:59:19.012Z,28.62
2022-08-12T11:00:30.456Z,28.67
2022-08-12T11:01:26.104Z,28.78
2022-08-12T11:04:19.499Z,29.02
2022-08-12T11:04:26.006Z,28.79
2022-08-12T11:04:37.177Z,28.97
2022-08-12T11:07:08.460Z,28.88
2022-08-12T11:07:08.650Z,29.04
2022-08-12T11:08:34.944Z,28.91
2022-08-12T11:08:38.753Z,28.91
2022-08-12T11:09:18.974Z,28.94
2022-08-12T11:10:19.087Z,29.02
2022-08-12T11:11:27.749Z,29.04
2022-08-12T11:12:54.524Z,29.04
2022-08-12T11:13:18.706Z,29.10
2022-08-12T11:14:49.461Z,29.01
2022-08-12T11:15:24.184Z,29.12
2022-08-12T11:16:22.113Z,28.93
2022-08-12T11:17:43.964Z,28.93
2022-08-12T11:18:19.142Z,28.85
2022-08-12T11:19:22.487Z,28.76
2022-08-12T11:20:18.612Z,28.63
2022-08-12T11:21:18.653Z,28.45
2022-08-12T11:22:18.515Z,28.37
2022-08-12T11:23:25.572Z,28.27
2022-08-12T11:24:30.010Z,28.29
2022-08-12T11:25:18.458Z,28.17
2022-08-12T11:26:18.422Z,28.11
2022-08-12T11:27:18.780Z,27.93
2022-08-12T11:28:34.647Z,28.01
2022-08-12T11:29:22.553Z,28.05
2022-08-12T11:30:30.674Z,28.15
2022-08-12T11:31:18.316Z,28.29
2022-08-12T11:32:18.319Z,28.29
2022-08-12T11:34:03.136Z,28.39
2022-08-12T11:34:52.622Z,28.45
2022-08-12T11:35:18.229Z,28.44
2022-08-12T11:36:18.173Z,28.42
2022-08-12T11:37:26.163Z,28.48
2022-08-12T11:38:20.388Z,28.70
2022-08-12T11:39:18.331Z,28.63
2022-08-12T11:41:18.067Z,28.82
2022-08-12T11:42:18.052Z,28.79
2022-08-12T11:43:19.562Z,28.82
2022-08-12T11:44:36.733Z,29.08
2022-08-12T11:45:18.186Z,29.16
2022-08-12T11:46:18.358Z,29.13
2022-08-12T11:47:17.946Z,29.31
2022-08-12T11:48:17.919Z,29.34
2022-08-12T11:49:26.842Z,29.35
2022-08-12T11:50:19.024Z,29.41
2022-08-12T11:51:17.952Z,29.44
2022-08-12T11:52:36.697Z,29.51
2022-08-12T11:53:58.985Z,29.47
2022-08-12T11:54:17.798Z,29.27
2022-08-12T11:55:17.778Z,29.24
2022-08-12T11:56:17.757Z,29.19
2022-08-12T11:58:14.353Z,29.19
2022-08-12T11:59:44.407Z,29.23
2022-08-12T12:02:00.913Z,29.27
2022-08-12T12:02:01.716Z,29.23
2022-08-12T12:02:20.634Z,29.13
2022-08-12T12:03:17.770Z,29.10
2022-08-12T12:04:29.048Z,29.02
2022-08-12T12:05:18.083Z,29.01
2022-08-12T12:06:17.554Z,29.05
2022-08-12T12:07:17.537Z,29.12
2022-08-12T12:08:38.083Z,29.14
2022-08-12T12:09:17.559Z,28.97
2022-08-12T12:10:17.458Z,28.89
2022-08-12T12:11:17.494Z,28.97
2022-08-12T12:12:17.417Z,29.07
2022-08-12T12:13:23.176Z,29.16
2022-08-12T12:14:37.874Z,29.17
2022-08-12T12:15:24.733Z,29.35
2022-08-12T12:16:17.342Z,29.32
2022-08-12T12:17:17.316Z,29.35
2022-08-12T12:18:17.297Z,29.23
2022-08-12T12:19:17.279Z,29.29
2022-08-12T12:20:17.514Z,29.29
2022-08-12T12:21:17.232Z,29.24
2022-08-12T12:22:23.517Z,29.23
2022-08-12T12:23:29.306Z,29.20
2022-08-12T12:24:21.473Z,29.17
2022-08-12T12:25:19.877Z,29.20
2022-08-12T12:26:34.860Z,29.10
2022-08-12T12:27:18.231Z,29.05
2022-08-12T12:28:36.686Z,29.02
2022-08-12T12:30:18.043Z,29.20
2022-08-12T12:30:25.676Z,29.29
2022-08-12T12:32:11.041Z,29.29
2022-08-12T12:32:17.074Z,29.42
2022-08-12T12:33:18.215Z,29.47
2022-08-12T12:34:30.641Z,29.54
2022-08-12T12:36:06.534Z,29.63
2022-08-12T12:36:24.078Z,29.76
2022-08-12T12:37:17.477Z,29.76
2022-08-12T12:38:17.508Z,29.97
2022-08-12T12:39:17.637Z,30.05
2022-08-12T12:40:17.749Z,30.16
2022-08-12T12:41:17.249Z,30.19
2022-08-12T12:42:43.040Z,30.31
2022-08-12T12:43:16.781Z,30.25
2022-08-12T12:44:30.289Z,30.24
2022-08-12T12:45:19.784Z,30.25
2022-08-12T12:46:16.724Z,30.31
2022-08-12T12:47:28.672Z,30.31
2022-08-12T12:48:16.678Z,30.31
2022-08-12T12:49:16.656Z,30.32
2022-08-12T12:50:35.272Z,30.31
2022-08-12T12:51:22.165Z,30.28
2022-08-12T12:52:18.731Z,30.40
2022-08-12T12:54:06.100Z,30.32
2022-08-12T12:54:16.555Z,30.08
2022-08-12T12:55:16.567Z,30.05
2022-08-12T12:56:16.531Z,30.09